createdAt,value
2022-08-26T00:01:45.151Z,18.90
2022-08-26T00:04:12.397Z,18.90
2022-08-26T00:06:42.645Z,19.00
2022-08-26T00:09:16.177Z,19.10
2022-08-26T00:11:44.689Z,19.10
2022-08-26T00:14:13.361Z,19.00
2022-08-26T00:16:41.048Z,19.00
2022-08-26T00:19:16.320Z,19.00
2022-08-26T00:21:43.655Z,19.10
2022-08-26T00:24:10.951Z,19.10
2022-08-26T00:26:38.953Z,19.10
2022-08-26T00:29:08.638Z,19.00
2022-08-26T00:31:36.559Z,19.10
2022-08-26T00:34:04.632Z,19.10
2022-08-26T00:36:31.960Z,19.10
2022-08-26T00:38:59.032Z,19.10
2022-08-26T00:41:25.800Z,19.10
2022-08-26T00:43:52.929Z,19.20
2022-08-26T00:46:25.163Z,19.10
2022-08-26T00:48:57.923Z,19.10
2022-08-26T00:51:29.685Z,19.10
2022-08-26T00:54:05.859Z,19.00
2022-08-26T00:56:52.762Z,19.10
2022-08-26T00:59:21.029Z,19.10
2022-08-26T01:01:47.965Z,19.10
2022-08-26T01:04:19.803Z,19.20
2022-08-26T01:06:48.998Z,19.10
2022-08-26T01:09:17.003Z,19.00
2022-08-26T01:11:44.320Z,19.10
2022-08-26T01:14:14.291Z,19.20
2022-08-26T01:16:42.310Z,19.30
2022-08-26T01:19:45.834Z,19.30
2022-08-26T01:22:21.826Z,19.40
2022-08-26T01:24:55.884Z,19.50
2022-08-26T01:27:23.376Z,19.60
2022-08-26T01:29:51.589Z,19.60
2022-08-26T01:32:23.305Z,19.60
2022-08-26T01:34:50.548Z,19.60
2022-08-26T01:37:21.888Z,19.50
2022-08-26T01:39:51.198Z,19.40
2022-08-26T01:42:20.737Z,19.40
2022-08-26T01:44:51.953Z,19.30
2022-08-26T01:47:21.596Z,19.30
2022-08-26T01:49:51.417Z,19.10
2022-08-26T01:52:27.638Z,19.00
2022-08-26T01:54:56.825Z,19.00
2022-08-26T01:57:25.954Z,19.00
2022-08-26T01:59:57.142Z,18.90
2022-08-26T02:02:24.662Z,18.90
2022-08-26T02:04:58.586Z,18.90
2022-08-26T02:07:27.157Z,18.90
2022-08-26T02:09:53.983Z,18.80
2022-08-26T02:12:21.464Z,18.80
2022-08-26T02:14:53.628Z,18.80
2022-08-26T02:17:24.523Z,18.80
2022-08-26T02:19:51.657Z,18.70
2022-08-26T02:22:20.782Z,18.70
2022-08-26T02:24:56.254Z,18.60
2022-08-26T02:27:32.482Z,18.50
2022-08-26T02:30:18.845Z,18.40
2022-08-26T02:32:46.378Z,18.30
2022-08-26T02:35:20.019Z,18.30
2022-08-26T02:37:48.063Z,18.40
2022-08-26T02:40:21.376Z,18.40
2022-08-26T02:42:49.746Z,18.40
2022-08-26T02:45:23.371Z,18.40
2022-08-26T02:47:51.800Z,18.40
2022-08-26T02:50:20.052Z,18.30
2022-08-26T02:52:48.256Z,18.30
2022-08-26T02:55:15.457Z,18.40
2022-08-26T02:57:42.123Z,18.40
2022-08-26T03:00:11.807Z,18.50
2022-08-26T03:02:38.491Z,18.50
2022-08-26T03:05:05.684Z,18.40
2022-08-26T03:07:32.417Z,18.40
2022-08-26T03:09:59.255Z,18.50
2022-08-26T03:12:26.065Z,18.50
2022-08-26T03:14:53.076Z,18.50
2022-08-26T03:17:20.940Z,18.50
2022-08-26T03:19:50.698Z,18.40
2022-08-26T03:22:19.674Z,18.50
2022-08-26T03:24:47.273Z,18.40
2022-08-26T03:27:14.454Z,18.60
2022-08-26T03:30:00.224Z,18.50
2022-08-26T03:32:28.116Z,18.40
2022-08-26T03:34:56.406Z,18.40
2022-08-26T03:37:23.357Z,18.40
2022-08-26T03:39:50.147Z,18.30
2022-08-26T03:42:17.151Z,18.30
2022-08-26T03:44:48.299Z,18.30
2022-08-26T03:47:15.602Z,18.20
2022-08-26T03:49:42.575Z,18.20
2022-08-26T03:52:10.355Z,18.20
2022-08-26T03:54:41.254Z,18.10
2022-08-26T03:57:10.215Z,18.20
2022-08-26T03:59:36.960Z,18.20
2022-08-26T04:02:03.910Z,18.00
2022-08-26T04:04:38.478Z,17.90
2022-08-26T04:07:05.226Z,17.90
2022-08-26T04:09:32.025Z,17.80
2022-08-26T04:12:03.595Z,17.70
2022-08-26T04:14:31.064Z,17.70
2022-08-26T04:16:59.427Z,17.70
2022-08-26T04:19:26.388Z,17.80
2022-08-26T04:21:53.399Z,17.70
2022-08-26T04:24:22.722Z,17.80
2022-08-26T04:26:50.259Z,18.00
2022-08-26T04:29:20.531Z,18.00
2022-08-26T04:31:50.450Z,17.90
2022-08-26T04:34:24.364Z,17.90
2022-08-26T04:36:53.945Z,18.00
2022-08-26T04:39:20.638Z,17.90
2022-08-26T04:41:51.424Z,18.00
2022-08-26T04:44:21.625Z,18.10
2022-08-26T04:46:48.338Z,18.20
2022-08-26T04:49:15.734Z,18.10
2022-08-26T04:51:42.419Z,18.10
2022-08-26T04:54:10.908Z,18.20
2022-08-26T04:56:40.420Z,18.40
2022-08-26T04:59:16.805Z,18.40
2022-08-26T05:01:48.386Z,18.50
2022-08-26T05:04:18.814Z,18.50
2022-08-26T05:06:47.438Z,18.60
2022-08-26T05:09:15.315Z,18.70
2022-08-26T05:11:42.543Z,18.70
2022-08-26T05:14:09.611Z,18.70
2022-08-26T05:16:36.304Z,18.80
2022-08-26T05:19:04.219Z,18.90
2022-08-26T05:21:31.322Z,18.70
2022-08-26T05:23:58.368Z,18.70
2022-08-26T05:26:29.156Z,18.70
2022-08-26T05:28:57.686Z,18.70
2022-08-26T05:31:33.083Z,18.70
2022-08-26T05:34:03.719Z,18.80
2022-08-26T05:36:33.293Z,18.80
2022-08-26T05:39:02.529Z,18.80
2022-08-26T05:41:34.133Z,18.90
2022-08-26T05:44:02.055Z,18.80
2022-08-26T05:46:29.440Z,18.90
2022-08-26T05:48:57.312Z,19.10
2022-08-26T05:51:26.132Z,19.20
2022-08-26T05:53:54.928Z,19.20
2022-08-26T05:56:24.777Z,19.30
2022-08-26T05:58:52.099Z,19.30
2022-08-26T06:01:25.793Z,19.40
2022-08-26T06:04:01.289Z,19.60
2022-08-26T06:06:31.549Z,19.70
2022-08-26T06:09:00.514Z,20.00
2022-08-26T06:11:30.447Z,20.10
2022-08-26T06:14:03.600Z,20.30
2022-08-26T06:16:33.370Z,20.30
2022-08-26T06:19:02.838Z,20.50
2022-08-26T06:21:35.284Z,20.50
2022-08-26T06:24:30.720Z,20.70
2022-08-26T06:27:02.836Z,20.70
2022-08-26T06:29:33.447Z,20.80
2022-08-26T06:32:01.428Z,20.90
2022-08-26T06:34:30.569Z,21.00
2022-08-26T06:36:59.615Z,21.20
2022-08-26T06:39:26.422Z,21.40
2022-08-26T06:41:53.127Z,21.50
2022-08-26T06:44:20.221Z,21.60
2022-08-26T06:46:50.372Z,21.70
2022-08-26T06:49:17.814Z,21.80
2022-08-26T06:51:44.898Z,22.10
2022-08-26T06:54:11.889Z,22.40
2022-08-26T06:56:43.142Z,22.70
2022-08-26T06:59:11.544Z,23.10
2022-08-26T07:01:44.448Z,23.40
2022-08-26T07:04:14.381Z,23.50
2022-08-26T07:06:48.686Z,23.60
2022-08-26T07:09:16.777Z,23.60
2022-08-26T07:11:44.504Z,23.50
2022-08-26T07:14:12.561Z,23.70
2022-08-26T07:16:41.105Z,23.70
2022-08-26T07:19:11.078Z,23.80
2022-08-26T07:21:40.148Z,24.00
2022-08-26T07:24:07.014Z,24.10
2022-08-26T07:26:33.730Z,24.40
2022-08-26T07:29:01.926Z,24.60
2022-08-26T07:31:39.204Z,24.50
2022-08-26T07:34:09.727Z,24.30
2022-08-26T07:36:36.478Z,24.20
2022-08-26T07:39:03.517Z,24.20
2022-08-26T07:44:02.171Z,23.80
2022-08-26T07:46:31.267Z,23.70
2022-08-26T07:48:58.603Z,23.70
2022-08-26T07:51:27.074Z,23.60
2022-08-26T07:53:54.689Z,23.70
2022-08-26T07:56:22.925Z,23.80
2022-08-26T07:58:53.519Z,23.80
2022-08-26T08:01:23.562Z,23.90
2022-08-26T08:03:51.906Z,23.90
2022-08-26T08:06:27.277Z,24.00
2022-08-26T08:08:55.864Z,24.10
2022-08-26T08:11:23.278Z,24.40
2022-08-26T08:13:56.024Z,24.80
2022-08-26T08:16:28.149Z,25.00
2022-08-26T08:18:58.966Z,25.30
2022-08-26T08:21:26.733Z,25.40
2022-08-26T08:23:55.293Z,25.50
2022-08-26T08:26:23.327Z,25.60
2022-08-26T08:28:51.056Z,25.50
2022-08-26T08:31:54.506Z,25.40
2022-08-26T08:34:11.723Z,25.00
2022-08-26T08:36:38.403Z,25.00
2022-08-26T08:39:05.174Z,25.30
2022-08-26T08:41:59.981Z,25.30
2022-08-26T08:47:01.656Z,25.50
2022-08-26T08:49:30.781Z,25.90
2022-08-26T08:52:09.436Z,25.90
2022-08-26T08:54:38.475Z,26.20
2022-08-26T08:57:37.454Z,26.30
2022-08-26T09:00:17.896Z,26.30
2022-08-26T09:02:52.773Z,26.40
2022-08-26T09:05:48.770Z,26.20
2022-08-26T09:08:27.377Z,26.40
2022-08-26T09:11:00.829Z,26.10
2022-08-26T09:13:29.095Z,26.10
2022-08-26T09:16:20.347Z,26.00
2022-08-26T09:19:18.848Z,26.30
2022-08-26T09:21:46.457Z,26.40
2022-08-26T09:24:20.318Z,26.40
2022-08-26T09:26:49.448Z,26.30
2022-08-26T09:29:24.571Z,26.30
2022-08-26T09:32:12.796Z,26.40
2022-08-26T09:34:59.337Z,26.40
2022-08-26T09:37:39.445Z,26.40
2022-08-26T09:40:27.133Z,26.30
2022-08-26T09:43:06.521Z,26.60
2022-08-26T09:45:34.237Z,26.80
2022-08-26T09:48:02.337Z,26.80
2022-08-26T09:50:37.703Z,26.70
2022-08-26T09:53:12.981Z,26.50
2022-08-26T09:55:45.975Z,26.60
2022-08-26T09:58:35.534Z,26.50
2022-08-26T10:01:08.775Z,26.70
2022-08-26T10:03:37.957Z,26.80
2022-08-26T10:06:28.570Z,27.10
2022-08-26T10:08:58.899Z,27.30
2022-08-26T10:11:49.992Z,27.30
2022-08-26T10:14:39.434Z,27.20
2022-08-26T10:17:06.980Z,27.30
2022-08-26T10:19:56.497Z,27.10
2022-08-26T10:22:42.422Z,26.70
2022-08-26T10:25:15.871Z,26.80
2022-08-26T10:28:17.896Z,27.10
2022-08-26T10:30:56.093Z,27.20
2022-08-26T10:33:24.193Z,27.20
2022-08-26T10:36:05.955Z,27.20
2022-08-26T10:38:37.637Z,27.20
2022-08-26T10:41:13.136Z,26.80
2022-08-26T10:43:51.495Z,26.60
2022-08-26T10:46:23.944Z,26.80
2022-08-26T10:48:54.189Z,27.20
2022-08-26T10:51:31.938Z,27.40
2022-08-26T10:53:59.777Z,27.50
2022-08-26T10:56:44.646Z,27.70
2022-08-26T10:59:29.450Z,27.90
2022-08-26T11:02:21.512Z,28.10
2022-08-26T11:05:04.507Z,28.10
2022-08-26T11:07:34.131Z,28.20
2022-08-26T11:10:08.183Z,28.00
2022-08-26T11:12:34.812Z,27.90
2022-08-26T11:15:24.353Z,27.80
2022-08-26T11:17:51.831Z,27.80
2022-08-26T11:20:28.408Z,27.90
2022-08-26T11:22:56.571Z,28.10
2022-08-26T11:25:30.198Z,27.90
2022-08-26T11:27:59.817Z,28.10
2022-08-26T11:30:38.706Z,28.00
2022-08-26T11:33:08.198Z,28.20
2022-08-26T11:35:37.684Z,28.30
2022-08-26T11:38:29.223Z,28.20
2022-08-26T11:41:09.490Z,28.00
2022-08-26T11:43:38.563Z,27.90
2022-08-26T11:46:11.433Z,27.70
2022-08-26T11:48:41.266Z,27.50
2022-08-26T11:51:22.921Z,27.60
2022-08-26T11:53:49.867Z,27.60
2022-08-26T11:56:25.766Z,27.60
2022-08-26T11:58:56.627Z,27.40
2022-08-26T12:01:36.150Z,27.60
2022-08-26T12:04:10.329Z,27.90
2022-08-26T12:06:47.664Z,27.90
2022-08-26T12:09:27.705Z,27.80
2022-08-26T12:12:11.262Z,27.90
2022-08-26T12:14:39.650Z,28.00
2022-08-26T12:17:17.374Z,27.90
2022-08-26T12:19:46.160Z,27.90
2022-08-26T12:22:22.092Z,27.50
2022-08-26T12:24:52.825Z,27.80
2022-08-26T12:27:32.094Z,27.80
2022-08-26T12:30:04.777Z,27.80
2022-08-26T12:32:34.902Z,27.90
2022-08-26T12:37:41.130Z,27.70
2022-08-26T12:40:29.122Z,27.90
2022-08-26T12:43:01.803Z,28.10
2022-08-26T12:45:43.051Z,28.20
2022-08-26T12:48:34.945Z,28.10
2022-08-26T12:51:02.579Z,28.40
2022-08-26T12:53:33.324Z,28.50
2022-08-26T12:56:04.488Z,28.70
2022-08-26T12:58:39.381Z,28.70
2022-08-26T13:01:09.389Z,28.30
2022-08-26T13:03:43.202Z,28.10
2022-08-26T13:06:29.513Z,27.80
2022-08-26T13:09:06.464Z,27.80
2022-08-26T13:11:39.439Z,28.10
2022-08-26T13:14:21.035Z,28.20
2022-08-26T13:16:52.917Z,28.10
2022-08-26T13:19:23.307Z,27.90
2022-08-26T13:21:53.791Z,28.00
2022-08-26T13:24:26.208Z,28.10
2022-08-26T13:26:53.093Z,27.90
2022-08-26T13:29:20.050Z,27.90
2022-08-26T13:31:47.759Z,28.00
2022-08-26T13:34:20.565Z,28.00
2022-08-26T13:36:49.433Z,27.90
2022-08-26T13:39:17.301Z,28.00
2022-08-26T13:41:44.199Z,27.90
2022-08-26T13:44:11.790Z,27.70
2022-08-26T13:46:38.761Z,27.50
2022-08-26T13:49:06.469Z,27.40
2022-08-26T13:51:33.770Z,27.40
2022-08-26T13:54:00.843Z,27.50
2022-08-26T13:56:29.567Z,27.60
2022-08-26T13:58:57.645Z,27.50
2022-08-26T14:01:24.657Z,27.70
2022-08-26T14:03:52.112Z,27.80
2022-08-26T14:06:19.270Z,27.30
2022-08-26T14:08:46.918Z,27.20
2022-08-26T14:11:13.689Z,27.50
2022-08-26T14:13:40.533Z,27.60
2022-08-26T14:16:10.693Z,27.80
2022-08-26T14:18:45.209Z,27.60
2022-08-26T14:21:14.539Z,27.30
2022-08-26T14:23:41.845Z,27.30
2022-08-26T14:26:10.825Z,27.40
2022-08-26T14:28:41.794Z,27.00
2022-08-26T14:31:08.780Z,27.10
2022-08-26T14:33:38.113Z,27.10
2022-08-26T14:36:26.648Z,27.30
2022-08-26T14:38:54.836Z,27.30
2022-08-26T14:41:24.471Z,27.10
2022-08-26T14:44:07.809Z,26.80
2022-08-26T14:46:41.694Z,27.00
2022-08-26T14:49:10.691Z,27.00
2022-08-26T14:51:38.567Z,27.20
2022-08-26T14:54:14.554Z,27.30
2022-08-26T14:56:48.801Z,27.30
2022-08-26T14:59:20.699Z,27.20
2022-08-26T15:01:48.212Z,27.20
2022-08-26T15:04:15.886Z,27.20
2022-08-26T15:06:42.840Z,27.10
2022-08-26T15:09:10.084Z,27.20
2022-08-26T15:11:37.009Z,26.90
2022-08-26T15:14:04.120Z,26.90
2022-08-26T15:16:31.460Z,26.90
2022-08-26T15:19:00.389Z,26.80
2022-08-26T15:21:27.159Z,26.90
2022-08-26T15:23:54.423Z,26.40
2022-08-26T15:26:22.943Z,26.00
2022-08-26T15:28:50.021Z,26.20
2022-08-26T15:31:17.838Z,26.30
2022-08-26T15:33:45.569Z,26.30
2022-08-26T15:36:12.330Z,26.50
2022-08-26T15:38:42.160Z,26.30
2022-08-26T15:41:09.532Z,26.20
2022-08-26T15:43:37.839Z,25.90
2022-08-26T15:46:05.037Z,25.90
2022-08-26T15:48:31.831Z,25.90
2022-08-26T15:51:00.761Z,26.00
2022-08-26T15:53:30.179Z,25.90
2022-08-26T15:55:58.077Z,25.80
2022-08-26T15:58:26.451Z,25.80
2022-08-26T16:00:55.202Z,25.70
2022-08-26T16:03:22.532Z,25.70
2022-08-26T16:05:49.507Z,25.70
2022-08-26T16:08:17.455Z,25.60
2022-08-26T16:10:50.026Z,25.60
2022-08-26T16:13:19.836Z,25.50
2022-08-26T16:15:47.966Z,25.60
2022-08-26T16:18:15.415Z,25.60
2022-08-26T16:21:12.758Z,25.70
2022-08-26T16:23:38.324Z,25.80
2022-08-26T16:26:14.394Z,25.80
2022-08-26T16:28:41.309Z,25.70
2022-08-26T16:31:10.953Z,25.40
2022-08-26T16:33:37.844Z,25.30
2022-08-26T16:36:06.266Z,25.20
2022-08-26T16:38:33.656Z,25.10
2022-08-26T16:41:01.035Z,24.90
2022-08-26T16:43:28.326Z,24.70
2022-08-26T16:45:55.858Z,24.60
2022-08-26T16:48:23.453Z,24.40
2022-08-26T16:50:51.036Z,24.40
2022-08-26T16:53:18.578Z,24.40
2022-08-26T16:55:46.942Z,24.10
2022-08-26T16:58:14.647Z,24.00
2022-08-26T17:00:41.894Z,24.00
2022-08-26T17:03:09.329Z,23.90
2022-08-26T17:05:36.463Z,23.60
2022-08-26T17:08:04.579Z,23.00
2022-08-26T17:10:32.717Z,22.80
2022-08-26T17:12:59.864Z,22.70
2022-08-26T17:15:27.168Z,22.60
2022-08-26T17:17:54.795Z,22.40
2022-08-26T17:20:23.244Z,22.40
2022-08-26T17:22:52.258Z,22.40
2022-08-26T17:25:26.027Z,22.20
2022-08-26T17:27:53.198Z,22.20
2022-08-26T17:30:20.960Z,22.20
2022-08-26T17:32:48.162Z,22.10
2022-08-26T17:35:16.284Z,22.00
2022-08-26T17:37:43.488Z,22.10
2022-08-26T17:40:15.416Z,22.10
2022-08-26T17:42:43.040Z,22.20
2022-08-26T17:45:10.930Z,22.20
2022-08-26T17:47:38.079Z,22.10
2022-08-26T17:50:07.128Z,22.00
2022-08-26T17:52:33.830Z,21.90
2022-08-26T17:55:00.573Z,22.00
2022-08-26T17:57:27.476Z,21.80
2022-08-26T17:59:56.403Z,21.40
2022-08-26T18:02:23.285Z,21.20
2022-08-26T18:04:50.055Z,21.30
2022-08-26T18:07:17.341Z,21.30
2022-08-26T18:09:44.438Z,21.20
2022-08-26T18:12:12.151Z,21.10
2022-08-26T18:14:38.936Z,21.10
2022-08-26T18:17:05.795Z,21.10
2022-08-26T18:19:32.515Z,21.10
2022-08-26T18:21:59.294Z,21.10
2022-08-26T18:24:28.554Z,21.00
2022-08-26T18:26:55.738Z,21.10
2022-08-26T18:29:25.217Z,21.00
2022-08-26T18:31:52.431Z,21.00
2022-08-26T18:34:19.327Z,21.00
2022-08-26T18:36:46.986Z,21.10
2022-08-26T18:39:14.650Z,21.10
2022-08-26T18:41:46.776Z,21.10
2022-08-26T18:44:16.107Z,21.00
2022-08-26T18:46:45.075Z,20.90
2022-08-26T18:49:14.363Z,20.90
2022-08-26T18:51:42.531Z,20.90
2022-08-26T18:54:10.031Z,20.90
2022-08-26T18:56:38.771Z,20.90
2022-08-26T18:59:07.351Z,20.90
2022-08-26T19:01:36.184Z,20.80
2022-08-26T19:04:05.493Z,20.70
2022-08-26T19:06:35.429Z,20.60
2022-08-26T19:09:04.534Z,20.40
2022-08-26T19:11:37.290Z,20.40
2022-08-26T19:14:12.931Z,20.30
2022-08-26T19:16:43.235Z,20.30
2022-08-26T19:19:10.447Z,20.30
2022-08-26T19:21:38.016Z,20.40
2022-08-26T19:24:09.268Z,20.40
2022-08-26T19:26:36.472Z,20.40
2022-08-26T19:29:03.889Z,20.40
2022-08-26T19:31:31.141Z,20.30
2022-08-26T19:33:58.895Z,20.20
2022-08-26T19:36:26.903Z,20.30
2022-08-26T19:38:54.385Z,20.40
2022-08-26T19:41:37.162Z,20.50
2022-08-26T19:44:10.871Z,20.50
2022-08-26T19:49:06.384Z,20.50
2022-08-26T19:51:35.448Z,20.50
2022-08-26T19:54:02.675Z,20.40
2022-08-26T19:56:30.028Z,20.30
2022-08-26T19:58:57.237Z,20.20
2022-08-26T20:01:24.501Z,20.20
2022-08-26T20:03:51.545Z,20.30
2022-08-26T20:06:19.887Z,20.30
2022-08-26T20:08:46.869Z,20.30
2022-08-26T20:11:15.768Z,20.40
2022-08-26T20:13:43.704Z,20.40
2022-08-26T20:16:11.757Z,20.30
2022-08-26T20:18:59.028Z,20.30
2022-08-26T20:21:26.198Z,20.30
2022-08-26T20:24:00.384Z,20.30
2022-08-26T20:26:29.536Z,20.30
2022-08-26T20:28:57.087Z,20.30
2022-08-26T20:31:25.349Z,20.20
2022-08-26T20:33:52.655Z,20.10
2022-08-26T20:36:21.059Z,20.10
2022-08-26T20:38:49.032Z,20.10
2022-08-26T20:41:16.919Z,20.10
2022-08-26T20:43:44.045Z,20.20
2022-08-26T20:46:12.780Z,20.20
2022-08-26T20:48:45.765Z,20.20
2022-08-26T20:51:12.990Z,20.20
2022-08-26T20:53:40.132Z,20.30
2022-08-26T20:56:08.674Z,20.40
2022-08-26T20:58:35.558Z,20.30
2022-08-26T21:01:07.369Z,20.30
2022-08-26T21:03:35.720Z,20.40
2022-08-26T21:06:03.745Z,20.40
2022-08-26T21:08:33.128Z,20.30
2022-08-26T21:11:00.888Z,20.30
2022-08-26T21:13:42.927Z,20.40
2022-08-26T21:16:15.289Z,20.50
2022-08-26T21:18:42.839Z,20.50
2022-08-26T21:21:10.079Z,20.50
2022-08-26T21:23:37.651Z,20.50
2022-08-26T21:26:07.138Z,20.40
2022-08-26T21:28:39.343Z,20.50
2022-08-26T21:31:08.400Z,20.40
2022-08-26T21:33:35.684Z,20.40
2022-08-26T21:36:03.861Z,20.30
2022-08-26T21:38:31.316Z,20.20
2022-08-26T21:41:06.921Z,20.20
2022-08-26T21:43:35.789Z,20.20
2022-08-26T21:46:11.472Z,20.10
2022-08-26T21:48:39.466Z,20.00
2022-08-26T21:51:06.750Z,20.00
2022-08-26T21:53:34.020Z,20.00
2022-08-26T21:56:10.278Z,19.90
2022-08-26T21:58:37.130Z,19.80
2022-08-26T22:01:04.557Z,19.70
2022-08-26T22:03:31.318Z,19.70
2022-08-26T22:06:07.990Z,19.80
2022-08-26T22:08:34.790Z,19.70
2022-08-26T22:11:02.208Z,19.70
2022-08-26T22:13:32.554Z,19.70
2022-08-26T22:15:59.949Z,19.60
2022-08-26T22:18:28.290Z,19.60
2022-08-26T22:20:57.498Z,19.70
2022-08-26T22:23:24.702Z,19.60
2022-08-26T22:25:51.920Z,19.60
2022-08-26T22:28:18.734Z,19.60
2022-08-26T22:30:46.664Z,19.60
2022-08-26T22:33:14.322Z,19.60
2022-08-26T22:35:49.653Z,19.60
2022-08-26T22:38:17.213Z,19.70
2022-08-26T22:40:47.329Z,19.50
2022-08-26T22:43:14.786Z,19.40
2022-08-26T22:45:43.998Z,19.40
2022-08-26T22:48:12.301Z,19.40
2022-08-26T22:50:39.103Z,19.40
2022-08-26T22:53:05.755Z,19.50
2022-08-26T22:55:32.569Z,19.50
2022-08-26T22:58:00.016Z,19.50
2022-08-26T23:00:32.184Z,19.40
2022-08-26T23:03:00.261Z,19.30
2022-08-26T23:05:27.545Z,19.40
2022-08-26T23:07:56.103Z,19.30
2022-08-26T23:10:23.799Z,19.30
2022-08-26T23:12:52.253Z,19.30
2022-08-26T23:15:20.220Z,19.30
2022-08-26T23:17:48.085Z,19.30
2022-08-26T23:20:26.156Z,19.20
2022-08-26T23:22:53.474Z,19.10
2022-08-26T23:25:20.287Z,19.10
2022-08-26T23:27:48.360Z,19.20
2022-08-26T23:30:18.840Z,19.20
2022-08-26T23:32:45.912Z,19.10
2022-08-26T23:35:14.444Z,19.00
2022-08-26T23:37:44.061Z,18.90
2022-08-26T23:40:32.803Z,19.00
2022-08-26T23:43:03.140Z,19.10
2022-08-26T23:45:30.379Z,19.10
2022-08-26T23:47:57.520Z,19.00
2022-08-26T23:50:49.341Z,18.90
2022-08-26T23:53:20.921Z,19.00
2022-08-26T23:55:49.693Z,19.00
2022-08-26T23:58:18.157Z,19.00
